KPMU/PMU METAR and TAF weather

Enter ICAO airport designator
Station Type Date Time Source
KPMU METAR 2020/03/29 14:15 UTC NOAA

KPMU 291415Z AUTO 31009KT 10SM CLR 17/11 A3011 RMK AO2


Station Type Date Time Source
KPMU Decoded METAR 2020/03/29 14:15 UTC NOAA

Station name not available
Mar 29, 2020 - 10:15 AM EDT / 2020.03.29 1415 UTC
Wind: from the NW (310 degrees) at 10 MPH (9 KT):0
Visibility: 10 mile(s):0
Sky conditions: clear
Temperature: 62 F (17 C)
Dew Point: 51 F (11 C)
Relative Humidity: 67%
Pressure (altimeter): 30.11 in. Hg (1019 hPa)
ob: KPMU 291415Z AUTO 31009KT 10SM CLR 17/11 A3011 RMK AO2
cycle: 14

Station Type Date Time Source
KPMU TAF UTC NOAA

Error!

Example: see airport list